Benton Harbor, MI (49022)

10:56 AM EST on February 13, 2016 (GMT -0500)
Kevin and Patricia's | | Change Station
CLOSE
Current Station
Personal Weather Station
Location: Millburg, MI
Elevation: 669 ft
Nearby Weather Stations

Elev 669 ft 42.12 °N, 86.34 °W | Updated 11 seconds ago

Overcast
Overcast
16.2 °F
Feels Like 7 °F
N
6.5
Wind Variable Wind from NNW
Gusts 12.3 mph

Today
High -- | Low -- °F
--% Chance of Precip.
Yesterday
High -- | Low -- °F
Precip. -- in
Pressure 30.55 in
Visibility 10.0 miles
Clouds Mostly Cloudy 3600 ft
Overcast 4500 ft
Windchill 7 °F
Dew Point 8 °F
Humidity 71%
Rainfall 0.00 in
Snow Depth Not available.
7:45 AM 6:15 PM
Waxing Crescent, 32% visible
METAR KBEH 131553Z AUTO 30010G19KT 10SM BKN036 OVC045 M09/M17 A3051 RMK AO2 SNB01E29 SLP345 P0000 T10941172
Pressure 30.55 in
Visibility 10.0 miles
Clouds Mostly Cloudy 3600 ft
Overcast 4500 ft
Windchill 7 °F
Dew Point 8 °F
Humidity 71%
Rainfall 0.00 in
Snow Depth Not available.
7:45 AM 6:15 PM
Waxing Crescent, 32% visible
METAR KBEH 131553Z AUTO 30010G19KT 10SM BKN036 OVC045 M09/M17 A3051 RMK AO2 SNB01E29 SLP345 P0000 T10941172

10-Day Weather Forecast

Almanac

Astronomy

Feb. 13, 2016 Rise Set
Actual Time
Civil Twilight
Nautical Twilight
Astronomical Twilight
Moon
Length of Visible Light
Length of Day
Tomorrow will be .
, % of the Moon is Illuminated

Today's Extremes

State Highs State Lows

Community

WunderPhotos

Upload Photos

1,892,587 photos uploaded!

WunderBlog® & News

Nearby

Air Quality

  Air Quality AQ Index Pollutant
Not available.

Snow Depth

Station Depth Elevation

Earthquake Activity

City Distance Mag. Time & Date
Minimum magnitude displayed is 2.5.

Coastal Water Temperatures

Place Temperature

Stations

Nearby Weather Stations

Station Location Temp. Windchill Dew Point Humidity Wind Precip. Elev Updated Type
                   

Watches & Warnings

Winter Weather Advisory
Issued: 2:20 AM CST Feb. 13, 2016 – National Weather Service

... Winter Weather Advisory remains in effect until 4 PM EST /3 PM
CST/ this afternoon...

Hazardous weather...

* lake effect snow showers will gradually diminish in coverage
   and intensity today.

* Areas of blowing and drifting snow is expected this morning.

* Additional accumulations of 1 to 3 inches expected.

* Wind chills as low as 5 below to 10 below zero expected this
   morning.

Impacts...

* snow covered slick roads and areas of blowing snow will result
   in hazardous driving conditions.

* Frostbite will be possible for anyone who is outside for
   prolonged periods this morning.

Precautionary/preparedness actions...

A Winter Weather Advisory for snow and blowing snow means that
visibilities will be limited due to a combination of falling and
blowing snow. Use caution when traveling... especially in open
areas.